Map

Track Data

SID SEASON NUMBER BASIN SUBBASIN NAME ISO_TIME NATURE LAT LON WMO_WIND WMO_PRES WMO_AGENCY TRACK_TYPE DIST2LAND LANDFALL IFLAG USA_AGENCY USA_ATCF_ID USA_LAT USA_LON USA_RECORD USA_STATUS USA_WIND USA_PRES USA_SSHS USA_R34_NE USA_R34_SE USA_R34_SW USA_R34_NW USA_R50_NE USA_R50_SE USA_R50_SW USA_R50_NW USA_R64_NE USA_R64_SE USA_R64_SW USA_R64_NW USA_POCI USA_ROCI USA_RMW USA_EYE TOKYO_LAT TOKYO_LON TOKYO_GRADE TOKYO_WIND TOKYO_PRES TOKYO_R50_DIR TOKYO_R50_LONG TOKYO_R50_SHORT TOKYO_R30_DIR TOKYO_R30_LONG TOKYO_R30_SHORT TOKYO_LAND CMA_LAT CMA_LON CMA_CAT CMA_WIND CMA_PRES HKO_LAT HKO_LON HKO_CAT HKO_WIND HKO_PRES NEWDELHI_LAT NEWDELHI_LON NEWDELHI_GRADE NEWDELHI_WIND NEWDELHI_PRES NEWDELHI_CI NEWDELHI_DP NEWDELHI_POCI REUNION_LAT REUNION_LON REUNION_TYPE REUNION_WIND REUNION_PRES REUNION_TNUM REUNION_CI REUNION_RMW REUNION_R34_NE REUNION_R34_SE REUNION_R34_SW REUNION_R34_NW REUNION_R50_NE REUNION_R50_SE REUNION_R50_SW REUNION_R50_NW REUNION_R64_NE REUNION_R64_SE REUNION_R64_SW REUNION_R64_NW BOM_LAT BOM_LON BOM_TYPE BOM_WIND BOM_PRES BOM_TNUM BOM_CI BOM_RMW BOM_R34_NE BOM_R34_SE BOM_R34_SW BOM_R34_NW BOM_R50_NE BOM_R50_SE BOM_R50_SW BOM_R50_NW BOM_R64_NE BOM_R64_SE BOM_R64_SW BOM_R64_NW BOM_ROCI BOM_POCI BOM_EYE BOM_POS_METHOD BOM_PRES_METHOD NADI_LAT NADI_LON NADI_CAT NADI_WIND NADI_PRES WELLINGTON_LAT WELLINGTON_LON WELLINGTON_WIND WELLINGTON_PRES DS824_LAT DS824_LON DS824_STAGE DS824_WIND DS824_PRES TD9636_LAT TD9636_LON TD9636_STAGE TD9636_WIND TD9636_PRES TD9635_LAT TD9635_LON TD9635_WIND TD9635_PRES TD9635_ROCI NEUMANN_LAT NEUMANN_LON NEUMANN_CLASS NEUMANN_WIND NEUMANN_PRES MLC_LAT MLC_LON MLC_CLASS MLC_WIND MLC_PRES USA_GUST BOM_GUST BOM_GUST_PER REUNION_GUST REUNION_GUST_PER USA_SEAHGT USA_SEARAD_NE USA_SEARAD_SE USA_SEARAD_SW USA_SEARAD_NW STORM_SPEED STORM_DIR
1945011S12046 1945 3 SI MM NOT_NAMED 1945-01-11 06:00:00 NR -11.7000 45.9000 reunion main 311 303 _____O________ -1 -11.7000 45.9000 99 9.90000 3 176
1945011S12046 1945 3 SI MM NOT_NAMED 1945-01-11 09:00:00 NR -11.8367 45.9218 main 303 288 _____P________ -1 -11.8367 45.9218 99 3 171
1945011S12046 1945 3 SI MM NOT_NAMED 1945-01-11 12:00:00 NR -11.9735 45.9427 main 288 273 _____P________ -1 -11.9735 45.9427 99 3 171
1945011S12046 1945 3 SI MM NOT_NAMED 1945-01-11 15:00:00 NR -12.1104 45.9619 main 273 265 _____P________ -1 -12.1104 45.9619 99 3 172
1945011S12046 1945 3 SI MM NOT_NAMED 1945-01-11 18:00:00 NR -12.2476 45.9784 main 265 252 _____P________ -1 -12.2476 45.9784 99 3 173
1945011S12046 1945 3 SI MM NOT_NAMED 1945-01-11 21:00:00 NR -12.3850 45.9914 main 252 245 _____P________ -1 -12.3850 45.9914 99 3 0
1945011S12046 1945 3 SI MM NOT_NAMED 1945-01-12 00:00:00 NR -12.5229 45.9999 main 245 234 _____P________ -1 -12.5229 45.9999 99 3 176
1945011S12046 1945 3 SI MM NOT_NAMED 1945-01-12 03:00:00 NR -12.6612 46.0031 main 234 229 _____P________ -1 -12.6612 46.0031 99 3 0
1945011S12046 1945 3 SI MM NOT_NAMED 1945-01-12 06:00:00 NR -12.8000 46.0000 reunion main 229 224 _____O________ -1 -12.8000 46.0000 99 9.90000 3 183
1945011S12046 1945 3 SI MM NOT_NAMED 1945-01-12 09:00:00 NR -12.9405 45.9911 main 224 216 _____P________ -1 -12.9405 45.9911 99 3 0
1945011S12046 1945 3 SI MM NOT_NAMED 1945-01-12 12:00:00 NR -13.0882 45.9818 main 216 213 _____P________ -1 -13.0882 45.9818 99 3 0
1945011S12046 1945 3 SI MM NOT_NAMED 1945-01-12 15:00:00 NR -13.2498 45.9789 main 213 208 _____P________ -1 -13.2498 45.9789 99 3 175
1945011S12046 1945 3 SI MM NOT_NAMED 1945-01-12 18:00:00 NR -13.4320 45.9892 main 208 202 _____P________ -1 -13.4320 45.9892 99 4 174
1945011S12046 1945 3 SI MM NOT_NAMED 1945-01-12 21:00:00 NR -13.6415 46.0195 main 202 171 _____P________ -1 -13.6415 46.0195 99 5 169
1945011S12046 1945 3 SI MM NOT_NAMED 1945-01-13 00:00:00 NR -13.8848 46.0768 main 171 139 _____P________ -1 -13.8848 46.0768 99 6 165
1945011S12046 1945 3 SI MM NOT_NAMED 1945-01-13 03:00:00 NR -14.1688 46.1680 main 139 104 _____P________ -1 -14.1688 46.1680 99 7 161
1945011S12046 1945 3 SI MM NOT_NAMED 1945-01-13 06:00:00 NR -14.5000 46.3000 reunion main 104 55 _____O________ -1 -14.5000 46.3000 99 9.90000 8 159
1945011S12046 1945 3 SI MM NOT_NAMED 1945-01-13 09:00:00 NR -14.9062 46.4638 main 55 10 _____P________ -1 -14.9062 46.4638 99 9 158
1945011S12046 1945 3 SI MM NOT_NAMED 1945-01-13 12:00:00 NR -15.3626 46.6663 main 0 0 _____P________ -1 -15.3626 46.6663 99 10 156
1945011S12046 1945 3 SI MM NOT_NAMED 1945-01-13 15:00:00 NR -15.8574 46.9059 main 0 0 _____P________ -1 -15.8574 46.9059 99 11 154
1945011S12046 1945 3 SI MM NOT_NAMED 1945-01-13 18:00:00 NR -16.3791 47.1808 main 0 0 _____P________ -1 -16.3791 47.1808 99 12 152
1945011S12046 1945 3 SI MM NOT_NAMED 1945-01-13 21:00:00 NR -16.9158 47.4894 main 0 0 _____P________ -1 -16.9158 47.4894 99 13 150
1945011S12046 1945 3 SI MM NOT_NAMED 1945-01-14 00:00:00 NR -17.4559 47.8300 main 0 0 _____P________ -1 -17.4559 47.8300 99 13 148
1945011S12046 1945 3 SI MM NOT_NAMED 1945-01-14 03:00:00 NR -17.9879 48.2008 main 0 0 _____P________ -1 -17.9879 48.2008 99 13 145
1945011S12046 1945 3 SI MM NOT_NAMED 1945-01-14 06:00:00 NR -18.5000 48.6000 reunion main 0 0 _____O________ -1 -18.5000 48.6000 99 9.90000 13 141
1945011S12046 1945 3 SI MM NOT_NAMED 1945-01-14 09:00:00 NR -18.9747 49.0305 main 0 0 _____P________ -1 -18.9747 49.0305 99 13 138
1945011S12046 1945 3 SI MM NOT_NAMED 1945-01-14 12:00:00 NR -19.4382 49.4972 main 57 57 _____P________ -1 -19.4382 49.4972 99 13 135
1945011S12046 1945 3 SI MM NOT_NAMED 1945-01-14 15:00:00 NR -19.8871 49.9904 main 125 125 _____P________ -1 -19.8871 49.9904 99 13 133
1945011S12046 1945 3 SI MM NOT_NAMED 1945-01-14 18:00:00 NR -20.3180 50.5001 main 180 180 _____P________ -1 -20.3180 50.5001 99 13 131
1945011S12046 1945 3 SI MM NOT_NAMED 1945-01-14 21:00:00 NR -20.7279 51.0162 main 242 242 _____P________ -1 -20.7279 51.0162 99 13 130
1945011S12046 1945 3 SI MM NOT_NAMED 1945-01-15 00:00:00 NR -21.1134 51.5286 main 306 306 _____P________ -1 -21.1134 51.5286 99 12 128
1945011S12046 1945 3 SI MM NOT_NAMED 1945-01-15 03:00:00 NR -21.4718 52.0267 main 334 290 _____P________ -1 -21.4718 52.0267 99 11 127
1945011S12046 1945 3 SI MM NOT_NAMED 1945-01-15 06:00:00 NR -21.8000 52.5000 reunion main 290 262 _____O________ -1 -21.8000 52.5000 99 9.90000 11 127
1945011S12046 1945 3 SI MM NOT_NAMED 1945-01-15 09:00:00 NR -22.1187 52.9468 main 262 231 _____P________ -1 -22.1187 52.9468 99 10 127
1945011S12046 1945 3 SI MM NOT_NAMED 1945-01-15 12:00:00 NR -22.4093 53.3762 main 231 219 _____P________ -1 -22.4093 53.3762 99 10 126
1945011S12046 1945 3 SI MM NOT_NAMED 1945-01-15 15:00:00 NR -22.6725 53.7848 main 219 208 _____P________ -1 -22.6725 53.7848 99 9 124
1945011S12046 1945 3 SI MM NOT_NAMED 1945-01-15 18:00:00 NR -22.9088 54.1694 main 211 211 _____P________ -1 -22.9088 54.1694 99 8 123
1945011S12046 1945 3 SI MM NOT_NAMED 1945-01-15 21:00:00 NR -23.1190 54.5266 main 217 213 _____P________ -1 -23.1190 54.5266 99 7 122
1945011S12046 1945 3 SI MM NOT_NAMED 1945-01-16 00:00:00 NR -23.3039 54.8531 main 224 224 _____P________ -1 -23.3039 54.8531 99 7 121
1945011S12046 1945 3 SI MM NOT_NAMED 1945-01-16 03:00:00 NR -23.4639 55.1453 main 240 236 _____P________ -1 -23.4639 55.1453 99 6 121
1945011S12046 1945 3 SI MM NOT_NAMED 1945-01-16 06:00:00 NR -23.6000 55.4000 reunion main 246 246 _____O________ -1 -23.6000 55.4000 99 9.90000 5 120
1945011S12046 1945 3 SI MM NOT_NAMED 1945-01-16 09:00:00 NR -23.7131 55.6152 main 257 257 _____P________ -1 -23.7131 55.6152 99 4 120
1945011S12046 1945 3 SI MM NOT_NAMED 1945-01-16 12:00:00 NR -23.8058 55.7944 main 269 269 _____P________ -1 -23.8058 55.7944 99 3 119
1945011S12046 1945 3 SI MM NOT_NAMED 1945-01-16 15:00:00 NR -23.8812 55.9427 main 281 281 _____P________ -1 -23.8812 55.9427 99 3 119
1945011S12046 1945 3 SI MM NOT_NAMED 1945-01-16 18:00:00 NR -23.9422 56.0653 main 284 284 _____P________ -1 -23.9422 56.0653 99 2 118
1945011S12046 1945 3 SI MM NOT_NAMED 1945-01-16 21:00:00 NR -23.9917 56.1671 main 297 297 _____P________ -1 -23.9917 56.1671 99 2 118
1945011S12046 1945 3 SI MM NOT_NAMED 1945-01-17 00:00:00 NR -24.0326 56.2533 main 299 299 _____P________ -1 -24.0326 56.2533 99 2 117
1945011S12046 1945 3 SI MM NOT_NAMED 1945-01-17 03:00:00 NR -24.0677 56.3293 main 310 310 _____P________ -1 -24.0677 56.3293 99 2 117
1945011S12046 1945 3 SI MM NOT_NAMED 1945-01-17 06:00:00 NR -24.1000 56.4000 reunion main 312 _____O________ -1 -24.1000 56.4000 99 9.90000 1 114

About IBTrACS Database

This database is a web-friendly format of International Best Track Archive for Climate Stewardship (IBTrACS), a global best track data archive curated by NOAA dating back to 1842.

Updated: 2021-12-03